Stacja Pogody Warszawa Praga Północ 


Stacja Pogody
Warszawa Praga Północ

 Szerokość N 52° 15 '43"    Długość E 21° 01' 22"    Wysokość 89 m n.p.m.


Wschód Słońca 05:02 Górowanie Słońca 12:42 Zachód Słońca 20:22 lew
Data juliańska 2457240.933 Odległość Słońca 151741732 km Średn. kątowa Słońca 0,315°
Wschód Księżyca 22:40 Zachód Księżyca 11:33 Wiek Księżyca 20 dni Moon
Widoczność Księżyca 69,20% Odległość Księżyca 364722 km Średn. kątowa Księżyca 0,328°
Dzień krótszy od najdłuższego o: 01:27 Długość dnia 15:19 Imieniny Oswalda, Marii, Mariana




Warunki pogodowe uaktualnione 05-08-2015, o godzinie 10:21
Temperatura 29.0 °C ↑ Temperatura odczuwalna 29.8 °C
Punkt rosy 14.8 °C Humidex 32.8 °C
Deszcz na godzinę 0.0 mm Wilgotność względna 42% ↓
Prędkość wiatru (średnia) 0 km/h → Prędkość wiatru (podmuch) 4 km/h
Kierunek wiatru S Skala Beaufort'a 1
Aktualny dobowy przepływ wiatru 76 km
Ciśnienie względne  1016 hPa Trend ciśnienia powolny wzrost
Ciśnienie bezwzględne  1004 hPa Podstawa chmur 1826.0 m
METAR EPWA 050800Z 12005KT 090V150 CAVOK 29/17 Q1016 NOSIG
TAF TAF EPWA 050530Z 0506/0606 14005KT CAVOK





 a

Valid XHTML 1.0 Transitional Valid CSS!